createdAt,value
2023-02-25T00:00:19.956Z,87.00
2023-02-25T00:02:22.629Z,87.40
2023-02-25T00:04:28.150Z,86.69
2023-02-25T00:06:30.643Z,87.74
2023-02-25T00:08:33.966Z,86.97
2023-02-25T00:10:36.528Z,87.52
2023-02-25T00:12:40.131Z,87.45
2023-02-25T00:14:42.618Z,87.49
2023-02-25T00:16:45.544Z,88.08
2023-02-25T00:18:48.955Z,87.60
2023-02-25T00:20:51.414Z,87.14
2023-02-25T00:22:54.015Z,87.24
2023-02-25T00:24:57.258Z,87.57
2023-02-25T00:26:59.705Z,87.89
2023-02-25T00:29:02.226Z,87.89
2023-02-25T00:31:13.851Z,87.52
2023-02-25T00:33:16.431Z,87.67
2023-02-25T00:35:19.038Z,87.74
2023-02-25T00:37:21.654Z,87.58
2023-02-25T00:39:24.730Z,87.07
2023-02-25T00:41:29.082Z,87.39
2023-02-25T00:43:31.624Z,87.54
2023-02-25T00:45:34.450Z,87.40
2023-02-25T00:47:37.714Z,87.74
2023-02-25T00:49:41.214Z,87.00
2023-02-25T00:51:44.050Z,87.18
2023-02-25T00:53:47.295Z,87.50
2023-02-25T00:55:58.843Z,87.60
2023-02-25T00:58:02.081Z,87.20
2023-02-25T01:00:10.368Z,86.92
2023-02-25T01:02:12.931Z,87.20
2023-02-25T01:04:15.431Z,86.80
2023-02-25T01:06:18.275Z,86.66
2023-02-25T01:08:21.313Z,87.29
2023-02-25T01:10:23.857Z,86.72
2023-02-25T01:12:26.497Z,87.03
2023-02-25T01:14:29.019Z,87.63
2023-02-25T01:16:33.362Z,86.88
2023-02-25T01:18:35.907Z,87.66
2023-02-25T01:20:39.763Z,87.25
2023-02-25T01:22:42.229Z,87.44
2023-02-25T01:24:44.762Z,86.81
2023-02-25T01:26:48.659Z,86.80
2023-02-25T01:28:51.382Z,87.10
2023-02-25T01:30:53.953Z,87.34
2023-02-25T01:32:56.600Z,88.00
2023-02-25T01:34:59.165Z,87.35
2023-02-25T01:37:02.117Z,87.64
2023-02-25T01:39:05.234Z,87.45
2023-02-25T01:41:08.098Z,87.76
2023-02-25T01:43:16.366Z,87.71
2023-02-25T01:45:19.189Z,87.72
2023-02-25T01:47:21.745Z,87.74
2023-02-25T01:49:24.159Z,87.79
2023-02-25T01:51:28.331Z,87.67
2023-02-25T01:53:35.301Z,87.05
2023-02-25T01:55:40.427Z,87.27
2023-02-25T01:57:43.613Z,87.39
2023-02-25T01:59:48.388Z,87.30
2023-02-25T02:01:51.505Z,88.02
2023-02-25T02:03:54.232Z,87.66
2023-02-25T02:06:08.653Z,87.58
2023-02-25T02:08:11.594Z,87.54
2023-02-25T02:10:14.297Z,87.52
2023-02-25T02:12:17.077Z,87.38
2023-02-25T02:14:30.252Z,87.36
2023-02-25T02:16:32.833Z,87.38
2023-02-25T02:18:40.267Z,87.90
2023-02-25T02:21:12.084Z,87.23
2023-02-25T02:23:30.766Z,87.40
2023-02-25T02:25:51.689Z,87.53
2023-02-25T02:28:02.926Z,87.17
2023-02-25T02:30:37.542Z,87.54
2023-02-25T02:33:01.582Z,87.58
2023-02-25T02:35:06.733Z,87.68
2023-02-25T02:37:20.450Z,87.65
2023-02-25T02:39:58.407Z,87.51
2023-02-25T02:42:33.497Z,87.70
2023-02-25T02:44:44.684Z,87.33
2023-02-25T02:46:57.789Z,87.71
2023-02-25T02:49:23.715Z,87.17
2023-02-25T02:51:34.474Z,87.01
2023-02-25T02:53:50.916Z,87.68
2023-02-25T02:55:56.877Z,87.49
2023-02-25T02:58:18.363Z,88.16
2023-02-25T03:00:25.820Z,87.96
2023-02-25T03:02:33.694Z,87.91
2023-02-25T03:04:39.554Z,87.66
2023-02-25T03:06:48.771Z,87.33
2023-02-25T03:08:59.318Z,87.68
2023-02-25T03:11:01.875Z,87.89
2023-02-25T03:13:04.601Z,87.57
2023-02-25T03:15:09.171Z,87.31
2023-02-25T03:17:15.719Z,87.80
2023-02-25T03:19:29.926Z,87.47
2023-02-25T03:21:43.112Z,87.21
2023-02-25T03:23:47.941Z,87.01
2023-02-25T03:26:00.345Z,86.49
2023-02-25T03:28:10.791Z,86.75
2023-02-25T03:30:25.784Z,87.25
2023-02-25T03:32:29.936Z,86.95
2023-02-25T03:34:39.722Z,87.52
2023-02-25T03:37:05.015Z,87.78
2023-02-25T03:39:19.807Z,87.88
2023-02-25T03:41:28.115Z,87.81
2023-02-25T03:43:39.435Z,87.53
2023-02-25T03:45:44.208Z,88.02
2023-02-25T03:47:46.852Z,87.64
2023-02-25T03:50:07.644Z,88.18
2023-02-25T03:52:17.222Z,88.01
2023-02-25T03:54:19.784Z,88.37
2023-02-25T03:56:22.708Z,88.16
2023-02-25T03:58:25.441Z,87.62
2023-02-25T04:00:31.963Z,88.03
2023-02-25T04:02:34.757Z,88.04
2023-02-25T04:04:37.398Z,88.08
2023-02-25T04:06:39.945Z,88.56
2023-02-25T04:08:42.829Z,88.31
2023-02-25T04:10:46.945Z,88.49
2023-02-25T04:12:52.426Z,86.94
2023-02-25T04:14:54.886Z,86.75
2023-02-25T04:16:57.365Z,87.76
2023-02-25T04:19:00.131Z,87.94
2023-02-25T04:21:02.586Z,87.80
2023-02-25T04:23:05.178Z,87.47
2023-02-25T04:25:08.213Z,87.27
2023-02-25T04:27:10.739Z,87.68
2023-02-25T04:29:13.281Z,87.08
2023-02-25T04:31:15.880Z,86.82
2023-02-25T04:33:18.617Z,85.98
2023-02-25T04:35:21.145Z,86.62
2023-02-25T04:37:23.683Z,86.54
2023-02-25T04:39:26.156Z,85.90
2023-02-25T04:41:34.379Z,85.36
2023-02-25T04:43:36.867Z,84.81
2023-02-25T04:45:39.393Z,85.44
2023-02-25T04:47:42.602Z,84.78
2023-02-25T04:49:45.204Z,85.05
2023-02-25T04:51:49.666Z,85.00
2023-02-25T04:53:52.631Z,84.68
2023-02-25T04:55:55.167Z,85.69
2023-02-25T04:57:57.960Z,85.43
2023-02-25T05:00:00.443Z,84.58
2023-02-25T05:02:03.047Z,84.64
2023-02-25T05:04:05.689Z,84.41
2023-02-25T05:06:09.224Z,84.91
2023-02-25T05:08:11.773Z,84.76
2023-02-25T05:10:15.249Z,84.03
2023-02-25T05:12:17.730Z,84.36
2023-02-25T05:14:20.304Z,83.91
2023-02-25T05:16:23.523Z,85.02
2023-02-25T05:18:26.345Z,83.91
2023-02-25T05:20:29.227Z,84.00
2023-02-25T05:22:31.771Z,83.55
2023-02-25T05:24:34.656Z,83.48
2023-02-25T05:26:37.546Z,82.87
2023-02-25T05:28:40.405Z,82.75
2023-02-25T05:30:42.889Z,82.72
2023-02-25T05:32:45.572Z,82.61
2023-02-25T05:34:48.109Z,83.06
2023-02-25T05:36:50.597Z,82.86
2023-02-25T05:38:55.202Z,82.36
2023-02-25T05:41:03.011Z,82.27
2023-02-25T05:43:05.702Z,82.54
2023-02-25T05:45:09.153Z,82.72
2023-02-25T05:47:11.767Z,81.87
2023-02-25T05:49:14.290Z,81.90
2023-02-25T05:51:20.442Z,82.37
2023-02-25T05:53:22.945Z,82.34
2023-02-25T05:55:26.914Z,82.61
2023-02-25T05:57:30.009Z,82.32
2023-02-25T05:59:32.921Z,82.00
2023-02-25T06:01:35.404Z,82.41
2023-02-25T06:03:38.826Z,81.79
2023-02-25T06:05:42.370Z,81.43
2023-02-25T06:07:44.880Z,82.00
2023-02-25T06:09:47.408Z,81.68
2023-02-25T06:11:50.028Z,81.24
2023-02-25T06:13:54.787Z,80.71
2023-02-25T06:15:57.304Z,81.29
2023-02-25T06:18:00.031Z,80.83
2023-02-25T06:20:02.539Z,80.56
2023-02-25T06:22:06.795Z,80.17
2023-02-25T06:24:10.796Z,79.82
2023-02-25T06:26:14.805Z,79.42
2023-02-25T06:28:17.388Z,79.27
2023-02-25T06:30:20.138Z,79.15
2023-02-25T06:32:22.826Z,79.32
2023-02-25T06:34:32.901Z,78.45
2023-02-25T06:36:35.761Z,78.84
2023-02-25T06:38:38.750Z,78.87
2023-02-25T06:40:41.837Z,79.00
2023-02-25T06:42:44.859Z,78.82
2023-02-25T06:44:47.420Z,78.62
2023-02-25T06:46:55.638Z,78.54
2023-02-25T06:48:58.455Z,78.96
2023-02-25T06:51:02.074Z,78.61
2023-02-25T06:53:04.602Z,78.73
2023-02-25T06:55:07.594Z,78.77
2023-02-25T06:57:10.127Z,78.44
2023-02-25T06:59:12.895Z,78.04
2023-02-25T07:01:16.568Z,78.08
2023-02-25T07:03:19.209Z,78.36
2023-02-25T07:05:21.850Z,78.45
2023-02-25T07:07:24.355Z,78.44
2023-02-25T07:09:26.890Z,77.62
2023-02-25T07:11:33.751Z,78.10
2023-02-25T07:13:37.039Z,78.04
2023-02-25T07:15:39.865Z,78.10
2023-02-25T07:17:42.387Z,78.00
2023-02-25T07:19:44.986Z,77.39
2023-02-25T07:21:47.470Z,76.75
2023-02-25T07:23:50.519Z,76.23
2023-02-25T07:25:53.057Z,76.57
2023-02-25T07:27:55.576Z,76.20
2023-02-25T07:29:58.298Z,76.27
2023-02-25T07:32:01.407Z,75.79
2023-02-25T07:34:04.614Z,75.83
2023-02-25T07:36:07.728Z,75.37
2023-02-25T07:38:12.873Z,75.91
2023-02-25T07:40:17.029Z,75.68
2023-02-25T07:42:19.538Z,75.46
2023-02-25T07:44:22.058Z,75.41
2023-02-25T07:46:24.716Z,76.37
2023-02-25T07:48:27.987Z,75.30
2023-02-25T07:50:30.486Z,75.15
2023-02-25T07:52:33.271Z,74.93
2023-02-25T07:54:35.782Z,75.42
2023-02-25T07:56:38.303Z,75.35
2023-02-25T07:58:41.200Z,75.66
2023-02-25T08:00:45.855Z,75.47
2023-02-25T08:02:48.377Z,75.22
2023-02-25T08:04:51.300Z,75.01
2023-02-25T08:06:54.337Z,75.23
2023-02-25T08:08:57.416Z,75.01
2023-02-25T08:10:59.940Z,74.75
2023-02-25T08:13:02.425Z,74.92
2023-02-25T08:15:05.382Z,75.05
2023-02-25T08:17:07.834Z,75.13
2023-02-25T08:19:10.374Z,75.24
2023-02-25T08:21:24.443Z,76.40
2023-02-25T08:23:27.522Z,75.96
2023-02-25T08:25:30.428Z,76.53
2023-02-25T08:27:32.951Z,75.76
2023-02-25T08:29:38.552Z,75.97
2023-02-25T08:31:41.246Z,75.94
2023-02-25T08:33:49.694Z,76.43
2023-02-25T08:35:52.437Z,76.42
2023-02-25T08:37:55.038Z,76.79
2023-02-25T08:39:57.660Z,76.26
2023-02-25T08:42:00.602Z,76.79
2023-02-25T08:44:04.008Z,76.68
2023-02-25T08:46:06.901Z,76.80
2023-02-25T08:48:09.991Z,77.32
2023-02-25T08:50:13.106Z,77.16
2023-02-25T08:52:15.642Z,77.41
2023-02-25T08:54:18.144Z,77.91
2023-02-25T08:56:20.680Z,77.40
2023-02-25T08:58:23.195Z,77.76
2023-02-25T09:00:25.904Z,77.76
2023-02-25T09:02:28.465Z,77.94
2023-02-25T09:04:31.367Z,78.09
2023-02-25T09:06:34.167Z,77.39
2023-02-25T09:08:36.777Z,77.98
2023-02-25T09:10:49.945Z,78.25
2023-02-25T09:12:54.714Z,77.79
2023-02-25T09:14:57.300Z,77.53
2023-02-25T09:16:59.841Z,77.40
2023-02-25T09:19:02.954Z,77.63
2023-02-25T09:21:05.756Z,76.88
2023-02-25T09:23:10.410Z,77.70
2023-02-25T09:25:13.987Z,78.15
2023-02-25T09:27:16.560Z,78.10
2023-02-25T09:29:19.066Z,77.76
2023-02-25T09:31:21.951Z,78.65
2023-02-25T09:33:26.555Z,78.52
2023-02-25T09:35:29.095Z,77.82
2023-02-25T09:37:31.625Z,78.15
2023-02-25T09:39:34.497Z,78.37
2023-02-25T09:41:48.735Z,78.47
2023-02-25T09:44:08.635Z,79.02
2023-02-25T09:46:16.216Z,78.41
2023-02-25T09:48:32.805Z,78.18
2023-02-25T09:50:42.107Z,78.59
2023-02-25T09:53:13.401Z,77.85
2023-02-25T09:55:38.112Z,78.17
2023-02-25T09:57:41.915Z,78.20
2023-02-25T09:59:45.304Z,78.36
2023-02-25T10:02:15.684Z,78.75
2023-02-25T10:04:43.846Z,77.41
2023-02-25T10:06:51.326Z,78.18
2023-02-25T10:09:18.355Z,78.63
2023-02-25T10:11:49.487Z,79.03
2023-02-25T10:14:23.414Z,79.21
2023-02-25T10:16:59.964Z,79.77
2023-02-25T10:19:37.497Z,79.12
2023-02-25T10:22:01.964Z,79.54
2023-02-25T10:24:23.510Z,79.49
2023-02-25T10:26:30.124Z,80.11
2023-02-25T10:28:35.661Z,80.20
2023-02-25T10:30:50.260Z,80.38
2023-02-25T10:32:54.355Z,80.85
2023-02-25T10:35:01.216Z,81.35
2023-02-25T10:37:14.245Z,81.22
2023-02-25T10:39:16.767Z,81.88
2023-02-25T10:41:25.525Z,82.57
2023-02-25T10:43:28.414Z,82.70
2023-02-25T10:45:32.569Z,83.07
2023-02-25T10:47:40.122Z,83.21
2023-02-25T10:50:11.516Z,83.18
2023-02-25T10:52:18.849Z,83.62
2023-02-25T10:54:24.408Z,83.06
2023-02-25T10:56:43.764Z,83.20
2023-02-25T10:59:02.020Z,84.04
2023-02-25T11:01:14.515Z,83.82
2023-02-25T11:03:23.701Z,84.39
2023-02-25T11:05:40.987Z,84.68
2023-02-25T11:07:43.793Z,84.56
2023-02-25T11:09:46.427Z,85.31
2023-02-25T11:12:10.401Z,85.40
2023-02-25T11:14:12.829Z,85.25
2023-02-25T11:16:15.503Z,85.24
2023-02-25T11:18:31.644Z,85.74
2023-02-25T11:20:35.295Z,85.55
2023-02-25T11:22:43.429Z,86.38
2023-02-25T11:24:59.845Z,86.57
2023-02-25T11:27:04.908Z,86.55
2023-02-25T11:29:15.075Z,86.33
2023-02-25T11:31:21.594Z,86.43
2023-02-25T11:33:30.111Z,86.45
2023-02-25T11:35:38.361Z,87.15
2023-02-25T11:37:45.381Z,86.95
2023-02-25T11:39:56.314Z,87.51
2023-02-25T11:42:18.203Z,87.34
2023-02-25T11:44:26.982Z,87.42
2023-02-25T11:46:32.869Z,87.44
2023-02-25T11:49:00.577Z,87.63
2023-02-25T11:51:34.054Z,87.95
2023-02-25T11:53:57.972Z,87.87
2023-02-25T11:56:15.602Z,87.67
2023-02-25T11:58:48.795Z,88.02
2023-02-25T12:01:01.580Z,88.22
2023-02-25T12:03:10.527Z,88.56
2023-02-25T12:05:18.746Z,88.53
2023-02-25T12:07:39.422Z,88.74
2023-02-25T12:10:03.498Z,88.38
2023-02-25T12:12:06.238Z,88.64
2023-02-25T12:14:59.785Z,88.43
2023-02-25T12:17:11.336Z,88.20
2023-02-25T12:19:50.759Z,88.44
2023-02-25T12:22:30.189Z,88.23
2023-02-25T12:25:17.767Z,89.04
2023-02-25T12:27:56.052Z,88.85
2023-02-25T12:30:13.291Z,89.50
2023-02-25T12:32:18.685Z,89.45
2023-02-25T12:34:22.822Z,89.94
2023-02-25T12:36:52.642Z,89.47
2023-02-25T12:39:13.633Z,89.65
2023-02-25T12:41:35.120Z,89.62
2023-02-25T12:43:51.362Z,89.88
2023-02-25T12:46:21.102Z,89.66
2023-02-25T12:48:46.954Z,89.78
2023-02-25T12:51:27.842Z,90.12
2023-02-25T12:54:04.320Z,90.25
2023-02-25T12:56:27.017Z,89.91
2023-02-25T12:58:52.445Z,90.29
2023-02-25T13:01:28.462Z,90.46
2023-02-25T13:04:01.641Z,90.56
2023-02-25T13:06:20.912Z,90.96
2023-02-25T13:08:52.356Z,91.32
2023-02-25T13:11:17.676Z,91.29
2023-02-25T13:13:46.303Z,91.85
2023-02-25T13:16:16.627Z,91.29
2023-02-25T13:18:39.968Z,91.84
2023-02-25T13:20:54.547Z,91.96
2023-02-25T13:22:59.870Z,92.54
2023-02-25T13:25:40.954Z,92.08
2023-02-25T13:28:11.729Z,92.51
2023-02-25T13:31:03.339Z,92.48
2023-02-25T13:33:34.883Z,92.72
2023-02-25T13:36:19.544Z,93.49
2023-02-25T13:38:30.774Z,93.58
2023-02-25T13:40:57.615Z,94.31
2023-02-25T13:43:18.315Z,94.06
2023-02-25T13:45:48.955Z,94.54
2023-02-25T13:48:19.601Z,94.39
2023-02-25T13:50:37.002Z,94.59
2023-02-25T13:52:39.463Z,94.81
2023-02-25T13:54:48.499Z,95.04
2023-02-25T13:57:01.678Z,94.84
2023-02-25T13:59:32.304Z,94.99
2023-02-25T14:01:58.315Z,95.60
2023-02-25T14:04:25.530Z,96.20
2023-02-25T14:06:30.664Z,95.94
2023-02-25T14:08:54.425Z,96.11
2023-02-25T14:11:11.562Z,96.67
2023-02-25T14:13:15.599Z,97.00
2023-02-25T14:15:47.635Z,97.35
2023-02-25T14:18:14.998Z,97.39
2023-02-25T14:20:49.694Z,97.58
2023-02-25T14:23:12.831Z,98.51
2023-02-25T14:25:34.257Z,98.36
2023-02-25T14:27:42.806Z,98.69
2023-02-25T14:30:17.974Z,98.58
2023-02-25T14:32:38.472Z,98.64
2023-02-25T14:35:19.926Z,98.71
2023-02-25T14:37:57.806Z,99.23
2023-02-25T14:40:34.138Z,98.73
2023-02-25T14:42:56.854Z,99.08
2023-02-25T14:45:18.991Z,99.23
2023-02-25T14:47:46.568Z,99.52
2023-02-25T14:49:55.032Z,99.39
2023-02-25T14:52:22.649Z,99.34
2023-02-25T14:54:49.722Z,99.78
2023-02-25T14:57:20.624Z,99.33
2023-02-25T15:00:13.969Z,99.95
2023-02-25T15:02:34.830Z,99.66
2023-02-25T15:05:04.919Z,99.93
2023-02-25T15:07:26.003Z,100.00
2023-02-25T15:10:00.447Z,100.00
2023-02-25T15:12:26.863Z,100.00
2023-02-25T15:14:59.728Z,100.00
2023-02-25T15:17:17.232Z,100.00
2023-02-25T15:19:41.310Z,100.00
2023-02-25T15:21:49.341Z,100.00
2023-02-25T15:23:52.274Z,100.00
2023-02-25T15:26:25.230Z,100.00
2023-02-25T15:28:30.697Z,100.00
2023-02-25T15:31:01.253Z,100.00
2023-02-25T15:33:33.856Z,100.00
2023-02-25T15:35:36.322Z,100.00
2023-02-25T15:37:58.724Z,100.00
2023-02-25T15:40:33.004Z,100.00
2023-02-25T15:42:41.118Z,100.00
2023-02-25T15:44:44.780Z,100.00
2023-02-25T15:46:50.827Z,100.00
2023-02-25T15:49:11.841Z,100.00
2023-02-25T15:51:45.511Z,100.00
2023-02-25T15:53:49.146Z,100.00
2023-02-25T15:55:52.647Z,100.00
2023-02-25T15:57:55.587Z,100.00
2023-02-25T15:59:58.232Z,100.00
2023-02-25T16:02:01.468Z,100.00
2023-02-25T16:04:34.747Z,100.00
2023-02-25T16:06:41.869Z,100.00
2023-02-25T16:08:50.060Z,100.00
2023-02-25T16:10:56.331Z,100.00
2023-02-25T16:13:01.124Z,100.00
2023-02-25T16:15:04.794Z,100.00
2023-02-25T16:17:30.168Z,100.00
2023-02-25T16:19:37.440Z,100.00
2023-02-25T16:21:45.365Z,100.00
2023-02-25T16:23:48.031Z,100.00
2023-02-25T16:26:15.483Z,99.88
2023-02-25T16:28:44.282Z,99.86
2023-02-25T16:30:56.954Z,100.00
2023-02-25T16:33:05.526Z,99.93
2023-02-25T16:35:32.925Z,99.71
2023-02-25T16:37:50.252Z,99.29
2023-02-25T16:39:54.119Z,98.91
2023-02-25T16:42:05.681Z,99.57
2023-02-25T16:44:08.722Z,98.65
2023-02-25T16:46:16.317Z,98.60
2023-02-25T16:48:27.720Z,98.36
2023-02-25T16:50:32.375Z,98.20
2023-02-25T16:52:41.064Z,98.58
2023-02-25T16:54:46.220Z,98.21
2023-02-25T16:56:53.164Z,97.61
2023-02-25T16:59:19.721Z,97.68
2023-02-25T17:01:23.576Z,97.74
2023-02-25T17:03:34.066Z,97.75
2023-02-25T17:05:38.131Z,97.62
2023-02-25T17:07:40.617Z,97.67
2023-02-25T17:09:46.422Z,97.10
2023-02-25T17:11:55.859Z,96.72
2023-02-25T17:14:03.068Z,97.26
2023-02-25T17:16:07.813Z,96.63
2023-02-25T17:18:19.087Z,96.39
2023-02-25T17:20:24.604Z,95.89
2023-02-25T17:22:27.912Z,96.28
2023-02-25T17:24:32.625Z,96.15
2023-02-25T17:26:40.370Z,95.82
2023-02-25T17:28:46.198Z,95.38
2023-02-25T17:30:49.708Z,95.23
2023-02-25T17:32:59.163Z,94.59
2023-02-25T17:35:03.973Z,94.83
2023-02-25T17:37:09.352Z,94.92
2023-02-25T17:39:17.581Z,94.86
2023-02-25T17:41:22.026Z,94.73
2023-02-25T17:43:32.749Z,95.08
2023-02-25T17:45:44.867Z,95.08
2023-02-25T17:47:47.478Z,95.18
2023-02-25T17:49:50.925Z,94.35
2023-02-25T17:51:56.869Z,94.69
2023-02-25T17:54:06.478Z,95.13
2023-02-25T17:56:25.586Z,95.07
2023-02-25T17:58:30.687Z,95.40
2023-02-25T18:00:36.163Z,95.43
2023-02-25T18:02:46.149Z,95.47
2023-02-25T18:04:52.622Z,94.82
2023-02-25T18:06:55.633Z,95.52
2023-02-25T18:09:02.780Z,95.32
2023-02-25T18:11:27.076Z,94.93
2023-02-25T18:13:37.564Z,95.07
2023-02-25T18:15:40.555Z,94.72
2023-02-25T18:17:54.533Z,94.78
2023-02-25T18:20:00.633Z,94.61
2023-02-25T18:22:03.926Z,94.64
2023-02-25T18:24:06.815Z,94.27
2023-02-25T18:26:25.381Z,94.80
2023-02-25T18:28:30.671Z,94.84
2023-02-25T18:30:33.639Z,95.17
2023-02-25T18:32:36.162Z,95.32
2023-02-25T18:34:38.857Z,95.70
2023-02-25T18:36:43.904Z,95.85
2023-02-25T18:38:46.487Z,96.71
2023-02-25T18:40:51.449Z,96.95
2023-02-25T18:42:54.418Z,97.07
2023-02-25T18:44:57.412Z,98.23
2023-02-25T18:46:59.981Z,98.51
2023-02-25T18:49:02.505Z,99.00
2023-02-25T18:51:10.030Z,99.38
2023-02-25T18:53:19.828Z,99.63
2023-02-25T18:55:28.104Z,100.00
2023-02-25T18:57:30.730Z,100.00
2023-02-25T18:59:33.912Z,100.00
2023-02-25T19:01:37.417Z,100.00
2023-02-25T19:03:40.094Z,100.00
2023-02-25T19:05:42.783Z,100.00
2023-02-25T19:07:45.725Z,100.00
2023-02-25T19:09:48.471Z,100.00
2023-02-25T19:11:51.909Z,100.00
2023-02-25T19:13:54.765Z,100.00
2023-02-25T19:15:57.354Z,100.00
2023-02-25T19:17:59.956Z,100.00
2023-02-25T19:20:03.034Z,100.00
2023-02-25T19:22:05.767Z,100.00
2023-02-25T19:24:12.215Z,100.00
2023-02-25T19:26:16.204Z,100.00
2023-02-25T19:28:18.661Z,100.00
2023-02-25T19:30:25.043Z,100.00
2023-02-25T19:32:28.046Z,100.00
2023-02-25T19:34:30.757Z,100.00
2023-02-25T19:36:33.286Z,100.00
2023-02-25T19:38:35.979Z,100.00
2023-02-25T19:40:38.595Z,100.00
2023-02-25T19:42:43.104Z,100.00
2023-02-25T19:44:45.607Z,100.00
2023-02-25T19:46:48.174Z,100.00
2023-02-25T19:48:50.683Z,100.00
2023-02-25T19:50:53.250Z,100.00
2023-02-25T19:52:55.932Z,100.00
2023-02-25T19:54:58.491Z,100.00
2023-02-25T19:57:01.852Z,100.00
2023-02-25T19:59:04.907Z,100.00
2023-02-25T20:01:09.076Z,100.00
2023-02-25T20:03:11.979Z,100.00
2023-02-25T20:05:15.315Z,100.00
2023-02-25T20:07:18.054Z,100.00
2023-02-25T20:09:20.868Z,100.00
2023-02-25T20:11:23.637Z,100.00
2023-02-25T20:13:26.107Z,100.00
2023-02-25T20:15:28.667Z,100.00
2023-02-25T20:17:31.430Z,100.00
2023-02-25T20:19:34.650Z,100.00
2023-02-25T20:21:37.290Z,100.00
2023-02-25T20:23:39.966Z,100.00
2023-02-25T20:25:42.888Z,100.00
2023-02-25T20:27:45.508Z,100.00
2023-02-25T20:29:48.081Z,100.00
2023-02-25T20:31:50.814Z,100.00
2023-02-25T20:33:57.568Z,100.00
2023-02-25T20:36:02.058Z,100.00
2023-02-25T20:38:23.476Z,100.00
2023-02-25T20:40:26.377Z,100.00
2023-02-25T20:42:31.152Z,100.00
2023-02-25T20:44:33.812Z,100.00
2023-02-25T20:46:37.494Z,100.00
2023-02-25T20:48:40.038Z,100.00
2023-02-25T20:50:42.870Z,100.00
2023-02-25T20:52:45.531Z,100.00
2023-02-25T20:54:49.906Z,100.00
2023-02-25T20:56:52.471Z,100.00
2023-02-25T20:58:55.350Z,100.00
2023-02-25T21:00:57.922Z,100.00
2023-02-25T21:03:00.489Z,100.00
2023-02-25T21:05:03.098Z,100.00
2023-02-25T21:07:07.149Z,100.00
2023-02-25T21:09:10.372Z,100.00
2023-02-25T21:11:12.878Z,100.00
2023-02-25T21:13:16.702Z,100.00
2023-02-25T21:15:19.156Z,100.00
2023-02-25T21:17:22.638Z,100.00
2023-02-25T21:19:26.918Z,100.00
2023-02-25T21:21:31.690Z,100.00
2023-02-25T21:23:36.177Z,100.00
2023-02-25T21:25:38.692Z,100.00
2023-02-25T21:27:41.128Z,100.00
2023-02-25T21:29:43.615Z,100.00
2023-02-25T21:31:46.384Z,100.00
2023-02-25T21:33:48.987Z,100.00
2023-02-25T21:35:53.277Z,100.00
2023-02-25T21:37:55.796Z,100.00
2023-02-25T21:39:58.319Z,100.00
2023-02-25T21:42:00.958Z,100.00
2023-02-25T21:44:03.568Z,100.00
2023-02-25T21:46:10.992Z,100.00
2023-02-25T21:48:13.556Z,100.00
2023-02-25T21:50:16.556Z,100.00
2023-02-25T21:52:19.023Z,100.00
2023-02-25T21:54:21.699Z,100.00
2023-02-25T21:56:25.266Z,100.00
2023-02-25T21:58:27.849Z,100.00
2023-02-25T22:00:30.374Z,100.00
2023-02-25T22:02:33.161Z,100.00
2023-02-25T22:04:36.082Z,100.00
2023-02-25T22:06:38.884Z,100.00
2023-02-25T22:08:43.129Z,100.00
2023-02-25T22:10:45.656Z,100.00
2023-02-25T22:12:48.110Z,100.00
2023-02-25T22:14:50.889Z,100.00
2023-02-25T22:16:53.519Z,100.00
2023-02-25T22:18:56.728Z,100.00
2023-02-25T22:21:09.872Z,100.00
2023-02-25T22:23:12.373Z,100.00
2023-02-25T22:25:14.997Z,100.00
2023-02-25T22:27:17.468Z,100.00
2023-02-25T22:29:20.119Z,100.00
2023-02-25T22:31:23.227Z,100.00
2023-02-25T22:33:26.279Z,100.00
2023-02-25T22:35:28.973Z,100.00
2023-02-25T22:37:32.290Z,100.00
2023-02-25T22:39:34.836Z,100.00
2023-02-25T22:41:38.648Z,100.00
2023-02-25T22:43:42.133Z,100.00
2023-02-25T22:45:44.921Z,100.00
2023-02-25T22:47:47.455Z,100.00
2023-02-25T22:49:49.918Z,100.00
2023-02-25T22:51:52.389Z,100.00
2023-02-25T22:53:55.431Z,100.00
2023-02-25T22:56:04.882Z,100.00
2023-02-25T22:58:07.449Z,100.00
2023-02-25T23:00:17.098Z,100.00
2023-02-25T23:02:19.717Z,100.00
2023-02-25T23:04:22.214Z,100.00
2023-02-25T23:06:42.359Z,100.00
2023-02-25T23:08:46.454Z,100.00
2023-02-25T23:10:50.445Z,100.00
2023-02-25T23:12:52.915Z,100.00
2023-02-25T23:14:55.399Z,100.00
2023-02-25T23:16:58.161Z,100.00
2023-02-25T23:19:03.971Z,100.00
2023-02-25T23:21:09.150Z,100.00
2023-02-25T23:23:13.754Z,100.00
2023-02-25T23:25:16.345Z,100.00
2023-02-25T23:27:18.818Z,100.00
2023-02-25T23:29:21.557Z,100.00
2023-02-25T23:31:30.320Z,100.00
2023-02-25T23:33:33.572Z,100.00
2023-02-25T23:35:40.716Z,100.00
2023-02-25T23:37:43.359Z,100.00
2023-02-25T23:39:45.953Z,100.00
2023-02-25T23:43:58.537Z,100.00
2023-02-25T23:46:05.486Z,100.00
2023-02-25T23:48:08.895Z,100.00
2023-02-25T23:50:15.874Z,100.00
2023-02-25T23:52:18.601Z,100.00
2023-02-25T23:54:22.671Z,100.00
2023-02-25T23:56:27.261Z,100.00
2023-02-25T23:58:30.138Z,99.99
